createdAt,value
2018-03-07T00:01:25.026Z,125.72
2018-03-07T00:03:54.265Z,126.38
2018-03-07T00:06:23.473Z,129.32
2018-03-07T00:08:53.043Z,123.97
2018-03-07T00:11:22.387Z,117.82
2018-03-07T00:13:51.479Z,119.43
2018-03-07T00:16:21.073Z,110.05
2018-03-07T00:18:50.229Z,112.15
2018-03-07T00:21:19.465Z,108.07
2018-03-07T00:23:48.959Z,110.82
2018-03-07T00:26:18.438Z,107.25
2018-03-07T00:28:47.781Z,115.75
2018-03-07T00:31:17.149Z,109.75
2018-03-07T00:33:46.966Z,108.85
2018-03-07T00:36:16.434Z,89.75
2018-03-07T00:38:45.715Z,82.97
2018-03-07T00:41:15.109Z,74.03
2018-03-07T00:43:44.061Z,74.28
2018-03-07T00:46:13.473Z,72.03
2018-03-07T00:48:42.783Z,77.40
2018-03-07T00:51:11.857Z,77.60
2018-03-07T00:53:41.196Z,84.82
2018-03-07T00:56:10.541Z,87.35
2018-03-07T00:58:39.961Z,82.47
2018-03-07T01:01:09.377Z,68.28
2018-03-07T01:03:38.579Z,85.85
2018-03-07T01:06:08.117Z,77.87
2018-03-07T01:08:37.713Z,78.68
2018-03-07T01:11:06.890Z,72.60
2018-03-07T01:13:36.277Z,70.93
2018-03-07T01:16:05.491Z,80.10
2018-03-07T01:18:34.734Z,76.80
2018-03-07T01:21:04.194Z,75.15
2018-03-07T01:23:33.842Z,81.28
2018-03-07T01:26:02.989Z,79.37
2018-03-07T01:28:32.537Z,75.40
2018-03-07T01:31:01.703Z,76.07
2018-03-07T01:33:31.197Z,79.03
2018-03-07T01:36:00.801Z,74.72
2018-03-07T01:38:29.901Z,64.72
2018-03-07T01:40:59.221Z,74.10
2018-03-07T01:43:28.621Z,86.70
2018-03-07T01:45:58.009Z,85.93
2018-03-07T01:48:27.223Z,87.18
2018-03-07T01:50:56.281Z,84.45
2018-03-07T01:53:25.452Z,73.00
2018-03-07T01:55:54.805Z,82.97
2018-03-07T01:58:24.205Z,82.40
2018-03-07T02:00:53.713Z,90.85
2018-03-07T02:03:22.948Z,92.25
2018-03-07T02:05:52.450Z,81.15
2018-03-07T02:08:21.729Z,83.00
2018-03-07T02:10:50.957Z,91.00
2018-03-07T02:13:20.229Z,94.60
2018-03-07T02:15:49.527Z,88.30
2018-03-07T02:18:18.721Z,92.93
2018-03-07T02:20:47.909Z,89.03
2018-03-07T02:23:17.313Z,90.25
2018-03-07T02:25:46.527Z,88.07
2018-03-07T02:28:15.770Z,84.95
2018-03-07T02:30:45.217Z,79.87
2018-03-07T02:33:15.186Z,80.05
2018-03-07T02:35:44.533Z,87.32
2018-03-07T02:38:13.739Z,94.00
2018-03-07T02:40:43.112Z,97.43
2018-03-07T02:43:13.603Z,96.85
2018-03-07T02:45:43.013Z,91.50
2018-03-07T02:48:12.607Z,89.90
2018-03-07T02:50:42.345Z,97.12
2018-03-07T02:53:11.737Z,85.12
2018-03-07T02:55:41.253Z,89.22
2018-03-07T02:58:10.326Z,81.57
2018-03-07T03:00:39.697Z,82.05
2018-03-07T03:03:09.201Z,81.68
2018-03-07T03:05:38.131Z,99.18
2018-03-07T03:08:07.431Z,95.45
2018-03-07T03:10:36.526Z,89.53
2018-03-07T03:13:05.711Z,87.50
2018-03-07T03:15:34.781Z,89.60
2018-03-07T03:18:04.185Z,94.95
2018-03-07T03:20:33.390Z,95.50
2018-03-07T03:23:02.826Z,101.22
2018-03-07T03:25:32.185Z,104.72
2018-03-07T03:28:01.945Z,97.37
2018-03-07T03:30:31.107Z,96.85
2018-03-07T03:33:00.805Z,81.50
2018-03-07T03:35:30.250Z,80.60
2018-03-07T03:37:59.667Z,70.57
2018-03-07T03:40:28.812Z,69.93
2018-03-07T03:42:58.115Z,74.35
2018-03-07T03:45:27.409Z,49.20
2018-03-07T03:47:56.709Z,72.32
2018-03-07T03:50:26.013Z,66.20
2018-03-07T03:52:55.463Z,62.97
2018-03-07T03:55:24.613Z,67.43
2018-03-07T03:57:53.826Z,67.20
2018-03-07T04:00:23.260Z,85.85
2018-03-07T04:02:52.500Z,66.20
2018-03-07T04:05:21.878Z,70.12
2018-03-07T04:07:51.041Z,71.82
2018-03-07T04:10:20.417Z,84.45
2018-03-07T04:12:49.653Z,75.78
2018-03-07T04:15:19.121Z,140.12
2018-03-07T04:17:48.430Z,84.50
2018-03-07T04:20:17.765Z,96.15
2018-03-07T04:22:47.269Z,84.75
2018-03-07T04:25:16.691Z,88.28
2018-03-07T04:27:45.882Z,98.85
2018-03-07T04:30:15.170Z,102.95
2018-03-07T04:32:44.225Z,90.57
2018-03-07T04:35:13.638Z,90.62
2018-03-07T04:37:42.729Z,102.78
2018-03-07T04:40:12.028Z,96.40
2018-03-07T04:42:41.475Z,99.97
2018-03-07T04:45:10.888Z,98.55
2018-03-07T04:47:40.077Z,111.70
2018-03-07T04:50:09.547Z,81.35
2018-03-07T04:52:39.145Z,112.60
2018-03-07T04:55:08.241Z,88.35
2018-03-07T04:57:37.858Z,57.10
2018-03-07T05:00:07.191Z,80.50
2018-03-07T05:02:36.570Z,74.03
2018-03-07T05:05:05.809Z,60.80
2018-03-07T05:07:35.220Z,60.33
2018-03-07T05:10:04.463Z,46.45
2018-03-07T05:12:33.957Z,47.03
2018-03-07T05:15:03.200Z,36.08
2018-03-07T05:17:32.420Z,34.08
2018-03-07T05:20:01.866Z,34.37
2018-03-07T05:22:31.325Z,34.00
2018-03-07T05:25:00.509Z,33.47
2018-03-07T05:27:29.528Z,36.03
2018-03-07T05:29:58.695Z,29.80
2018-03-07T05:32:27.920Z,31.67
2018-03-07T05:34:57.253Z,29.53
2018-03-07T05:37:26.317Z,28.63
2018-03-07T05:39:55.673Z,26.00
2018-03-07T05:42:24.761Z,24.37
2018-03-07T05:44:54.242Z,26.77
2018-03-07T05:47:23.722Z,22.67
2018-03-07T05:49:53.029Z,24.90
2018-03-07T05:52:22.360Z,23.50
2018-03-07T05:54:51.768Z,33.30
2018-03-07T05:57:21.082Z,19.27
2018-03-07T05:59:50.581Z,17.67
2018-03-07T06:02:19.659Z,18.80
2018-03-07T06:04:49.237Z,11.90
2018-03-07T06:07:18.237Z,6.00
2018-03-07T06:09:47.310Z,5.93
2018-03-07T06:12:16.434Z,5.80
2018-03-07T06:14:45.817Z,7.13
2018-03-07T06:17:15.217Z,6.93
2018-03-07T06:19:44.375Z,8.77
2018-03-07T06:22:13.869Z,16.10
2018-03-07T06:24:43.169Z,7.87
2018-03-07T06:27:12.586Z,12.50
2018-03-07T06:29:42.795Z,13.77
2018-03-07T06:32:12.107Z,10.50
2018-03-07T06:34:41.545Z,8.33
2018-03-07T06:37:10.905Z,9.70
2018-03-07T06:39:40.413Z,8.90
2018-03-07T06:42:09.631Z,9.90
2018-03-07T06:44:39.217Z,21.13
2018-03-07T06:47:08.631Z,14.43
2018-03-07T06:49:37.829Z,9.93
2018-03-07T06:52:07.226Z,8.20
2018-03-07T06:54:36.566Z,9.70
2018-03-07T06:57:06.039Z,11.37
2018-03-07T06:59:35.392Z,15.83
2018-03-07T07:02:04.453Z,13.80
2018-03-07T07:04:33.635Z,12.60
2018-03-07T07:07:02.825Z,11.83
2018-03-07T07:09:32.070Z,9.20
2018-03-07T07:12:01.886Z,9.77
2018-03-07T07:14:31.447Z,10.60
2018-03-07T07:17:00.975Z,11.73
2018-03-07T07:19:30.197Z,11.83
2018-03-07T07:21:59.549Z,8.80
2018-03-07T07:24:28.788Z,8.13
2018-03-07T07:26:58.059Z,15.43
2018-03-07T07:29:27.259Z,10.10
2018-03-07T07:31:56.785Z,9.83
2018-03-07T07:34:26.053Z,13.33
2018-03-07T07:36:55.561Z,10.60
2018-03-07T07:39:24.863Z,10.30
2018-03-07T07:41:54.283Z,10.57
2018-03-07T07:44:23.669Z,10.17
2018-03-07T07:46:52.975Z,12.20
2018-03-07T07:49:22.216Z,13.63
2018-03-07T07:51:51.858Z,13.90
2018-03-07T07:54:21.099Z,13.97
2018-03-07T07:56:50.319Z,15.50
2018-03-07T07:59:19.458Z,14.67
2018-03-07T08:01:48.377Z,12.07
2018-03-07T08:04:18.078Z,12.73
2018-03-07T08:06:47.388Z,13.57
2018-03-07T08:09:16.944Z,10.67
2018-03-07T08:11:46.405Z,12.07
2018-03-07T08:14:15.994Z,9.97
2018-03-07T08:16:45.487Z,10.17
2018-03-07T08:19:14.936Z,11.83
2018-03-07T08:21:44.121Z,11.43
2018-03-07T08:24:13.326Z,10.27
2018-03-07T08:26:42.562Z,10.77
2018-03-07T08:29:11.663Z,10.57
2018-03-07T08:31:41.101Z,9.43
2018-03-07T08:34:10.366Z,10.87
2018-03-07T08:36:39.850Z,11.73
2018-03-07T08:39:08.821Z,12.43
2018-03-07T08:41:37.982Z,10.87
2018-03-07T08:44:06.959Z,11.90
2018-03-07T08:46:36.257Z,10.73
2018-03-07T08:49:05.733Z,11.43
2018-03-07T08:51:35.224Z,10.73
2018-03-07T08:54:04.465Z,10.43
2018-03-07T08:56:33.813Z,11.03
2018-03-07T08:59:03.129Z,11.03
2018-03-07T09:01:32.358Z,10.40
2018-03-07T09:04:01.638Z,11.00
2018-03-07T09:06:31.156Z,10.70
2018-03-07T09:09:00.521Z,9.63
2018-03-07T09:11:29.878Z,9.67
2018-03-07T09:13:59.079Z,9.57
2018-03-07T09:16:28.363Z,9.43
2018-03-07T09:18:57.682Z,9.17
2018-03-07T09:21:26.794Z,8.17
2018-03-07T09:23:55.966Z,9.57
2018-03-07T09:26:25.422Z,9.00
2018-03-07T09:28:54.911Z,8.43
2018-03-07T09:31:24.173Z,8.60
2018-03-07T09:33:53.481Z,8.13
2018-03-07T09:36:22.582Z,8.87
2018-03-07T09:38:51.839Z,8.80
2018-03-07T09:41:21.015Z,8.70
2018-03-07T09:43:50.280Z,8.53
2018-03-07T09:46:19.526Z,8.37
2018-03-07T09:48:48.821Z,8.40
2018-03-07T09:51:18.121Z,8.70
2018-03-07T09:53:47.536Z,8.83
2018-03-07T09:56:16.968Z,9.07
2018-03-07T09:58:46.341Z,8.67
2018-03-07T10:01:15.440Z,8.90
2018-03-07T10:03:44.891Z,9.33
2018-03-07T10:06:14.175Z,7.97
2018-03-07T10:08:43.528Z,8.73
2018-03-07T10:11:12.666Z,7.73
2018-03-07T10:13:41.977Z,9.13
2018-03-07T10:16:11.017Z,8.90
2018-03-07T10:18:40.229Z,8.50
2018-03-07T10:21:09.487Z,8.43
2018-03-07T10:23:38.843Z,7.97
2018-03-07T10:26:08.295Z,8.93
2018-03-07T10:28:37.690Z,8.97
2018-03-07T10:31:07.053Z,7.73
2018-03-07T10:33:36.244Z,8.10
2018-03-07T10:36:05.323Z,8.07
2018-03-07T10:38:34.543Z,8.73
2018-03-07T10:41:03.694Z,8.37
2018-03-07T10:43:32.929Z,7.50
2018-03-07T10:46:02.019Z,10.53
2018-03-07T10:48:31.458Z,7.80
2018-03-07T10:51:00.709Z,7.60
2018-03-07T10:53:29.943Z,7.73
2018-03-07T10:55:59.440Z,8.13
2018-03-07T10:58:28.741Z,8.47
2018-03-07T11:00:58.245Z,8.20
2018-03-07T11:03:27.689Z,8.03
2018-03-07T11:05:57.166Z,8.50
2018-03-07T11:08:26.512Z,8.40
2018-03-07T11:10:55.525Z,8.33
2018-03-07T11:13:24.916Z,9.50
2018-03-07T11:15:54.206Z,8.23
2018-03-07T11:18:23.567Z,8.97
2018-03-07T11:20:52.719Z,8.90
2018-03-07T11:23:21.953Z,7.67
2018-03-07T11:25:51.257Z,7.03
2018-03-07T11:28:20.453Z,7.03
2018-03-07T11:30:49.904Z,6.53
2018-03-07T11:33:19.102Z,6.10
2018-03-07T11:35:48.606Z,6.60
2018-03-07T11:38:17.875Z,6.57
2018-03-07T11:40:46.933Z,5.47
2018-03-07T11:43:16.055Z,6.13
2018-03-07T11:45:45.214Z,7.20
2018-03-07T11:48:14.473Z,6.17
2018-03-07T11:50:43.872Z,6.03
2018-03-07T11:53:13.016Z,6.20
2018-03-07T11:55:42.253Z,5.80
2018-03-07T11:58:11.720Z,5.57
2018-03-07T12:00:41.050Z,5.27
2018-03-07T12:03:10.261Z,5.03
2018-03-07T12:05:39.829Z,5.60
2018-03-07T12:08:09.078Z,4.73
2018-03-07T12:10:38.577Z,4.13
2018-03-07T12:13:08.139Z,4.90
2018-03-07T12:15:38.201Z,4.57
2018-03-07T12:18:07.564Z,4.80
2018-03-07T12:20:36.845Z,4.97
2018-03-07T12:23:06.012Z,4.83
2018-03-07T12:25:35.890Z,5.60
2018-03-07T12:28:05.209Z,6.03
2018-03-07T12:30:34.633Z,5.30
2018-03-07T12:33:03.882Z,5.90
2018-03-07T12:35:33.244Z,5.07
2018-03-07T12:38:02.683Z,5.87
2018-03-07T12:40:32.441Z,5.93
2018-03-07T12:43:01.695Z,5.57
2018-03-07T12:45:30.781Z,6.50
2018-03-07T12:47:59.765Z,6.23
2018-03-07T12:50:29.143Z,5.70
2018-03-07T12:52:58.267Z,5.40
2018-03-07T12:55:27.781Z,4.87
2018-03-07T12:57:57.347Z,4.37
2018-03-07T13:00:26.674Z,4.60
2018-03-07T13:02:56.045Z,5.70
2018-03-07T13:05:26.231Z,4.03
2018-03-07T13:07:55.936Z,4.73
2018-03-07T13:10:25.283Z,3.60
2018-03-07T13:12:54.585Z,3.80
2018-03-07T13:15:23.881Z,3.47
2018-03-07T13:17:52.845Z,3.80
2018-03-07T13:20:22.542Z,4.77
2018-03-07T13:22:52.301Z,4.10
2018-03-07T13:25:21.721Z,3.10
2018-03-07T13:27:51.219Z,4.60
2018-03-07T13:30:20.781Z,3.80
2018-03-07T13:32:50.025Z,4.60
2018-03-07T13:35:19.381Z,4.23
2018-03-07T13:37:48.769Z,3.70
2018-03-07T13:40:18.333Z,4.00
2018-03-07T13:42:48.042Z,4.50
2018-03-07T13:45:17.708Z,4.43
2018-03-07T13:47:47.566Z,4.53
2018-03-07T13:50:17.317Z,4.63
2018-03-07T13:52:46.785Z,3.80
2018-03-07T13:55:16.393Z,3.67
2018-03-07T13:57:45.699Z,3.40
2018-03-07T14:00:15.479Z,3.57
2018-03-07T14:02:44.910Z,5.00
2018-03-07T14:05:14.682Z,5.63
2018-03-07T14:07:43.771Z,4.77
2018-03-07T14:10:13.165Z,5.53
2018-03-07T14:12:43.663Z,5.23
2018-03-07T14:15:12.968Z,6.80
2018-03-07T14:17:42.149Z,5.47
2018-03-07T14:20:11.505Z,4.63
2018-03-07T14:22:40.814Z,3.53
2018-03-07T14:25:10.153Z,4.30
2018-03-07T14:27:39.503Z,4.03
2018-03-07T14:30:08.761Z,4.33
2018-03-07T14:32:37.863Z,4.97
2018-03-07T14:35:07.219Z,4.43
2018-03-07T14:37:36.674Z,4.67
2018-03-07T14:40:06.107Z,4.97
2018-03-07T14:42:35.346Z,4.60
2018-03-07T14:45:04.566Z,4.27
2018-03-07T14:47:33.753Z,4.87
2018-03-07T14:50:02.876Z,10.63
2018-03-07T14:52:32.279Z,8.90
2018-03-07T14:55:01.362Z,4.87
2018-03-07T14:57:30.565Z,4.83
2018-03-07T14:59:59.747Z,5.23
2018-03-07T15:02:29.270Z,4.53
2018-03-07T15:04:58.624Z,5.83
2018-03-07T15:07:28.304Z,5.57
2018-03-07T15:09:57.691Z,5.23
2018-03-07T15:12:27.150Z,6.37
2018-03-07T15:14:56.345Z,8.23
2018-03-07T15:17:25.595Z,10.50
2018-03-07T15:19:54.946Z,14.27
2018-03-07T15:22:24.511Z,6.80
2018-03-07T15:24:53.629Z,9.33
2018-03-07T15:27:23.350Z,8.77
2018-03-07T15:29:52.806Z,6.63
2018-03-07T15:32:22.211Z,6.93
2018-03-07T15:34:51.778Z,6.47
2018-03-07T15:37:21.080Z,7.20
2018-03-07T15:39:50.117Z,5.23
2018-03-07T15:42:19.532Z,5.40
2018-03-07T15:44:49.487Z,5.43
2018-03-07T15:47:19.145Z,5.67
2018-03-07T15:49:48.867Z,5.73
2018-03-07T15:52:18.054Z,7.50
2018-03-07T15:54:47.623Z,5.50
2018-03-07T15:57:17.025Z,5.97
2018-03-07T15:59:46.469Z,5.47
2018-03-07T16:02:15.994Z,6.43
2018-03-07T16:04:45.085Z,5.80
2018-03-07T16:07:17.550Z,5.87
2018-03-07T16:09:46.911Z,111.90
2018-03-07T16:12:16.271Z,21.80
2018-03-07T16:14:45.721Z,19.80
2018-03-07T16:17:15.161Z,19.27
2018-03-07T16:19:44.356Z,19.43
2018-03-07T16:22:16.142Z,17.60
2018-03-07T16:24:45.445Z,19.77
2018-03-07T16:27:14.692Z,20.20
2018-03-07T16:29:43.939Z,22.10
2018-03-07T16:32:13.287Z,21.53
2018-03-07T16:34:42.589Z,15.80
2018-03-07T16:37:11.990Z,151.07
2018-03-07T16:39:41.237Z,66.90
2018-03-07T16:42:10.451Z,109.90
2018-03-07T16:44:40.042Z,217.40
2018-03-07T16:47:09.183Z,128.23
2018-03-07T16:49:38.141Z,85.37
2018-03-07T16:52:07.113Z,56.80
2018-03-07T16:54:36.422Z,40.17
2018-03-07T16:57:05.710Z,60.87
2018-03-07T16:59:34.717Z,33.27
2018-03-07T17:02:04.034Z,37.07
2018-03-07T17:04:32.997Z,24.70
2018-03-07T17:07:02.565Z,21.90
2018-03-07T17:09:31.690Z,27.63
2018-03-07T17:12:00.791Z,33.23
2018-03-07T17:14:29.979Z,25.33
2018-03-07T17:16:59.217Z,23.87
2018-03-07T17:19:28.549Z,22.57
2018-03-07T17:21:57.747Z,12.60
2018-03-07T17:24:27.007Z,11.40
2018-03-07T17:26:56.213Z,21.43
2018-03-07T17:29:25.565Z,22.00
2018-03-07T17:31:54.928Z,19.40
2018-03-07T17:34:24.302Z,69.03
2018-03-07T17:36:53.476Z,60.10
2018-03-07T17:39:22.669Z,51.47
2018-03-07T17:41:52.139Z,61.10
2018-03-07T17:44:22.581Z,58.40
2018-03-07T17:46:51.687Z,35.80
2018-03-07T17:49:20.752Z,25.70
2018-03-07T17:51:49.982Z,19.17
2018-03-07T17:54:19.053Z,21.20
2018-03-07T17:56:48.563Z,17.63
2018-03-07T17:59:17.886Z,16.63
2018-03-07T18:01:47.145Z,19.47
2018-03-07T18:04:16.702Z,20.70
2018-03-07T18:06:46.097Z,25.47
2018-03-07T18:09:15.045Z,30.83
2018-03-07T18:11:44.175Z,33.50
2018-03-07T18:14:13.234Z,34.13
2018-03-07T18:16:42.437Z,28.50
2018-03-07T18:19:11.891Z,30.50
2018-03-07T18:21:41.202Z,75.80
2018-03-07T18:24:10.276Z,34.33
2018-03-07T18:26:39.273Z,34.07
2018-03-07T18:29:08.330Z,40.07
2018-03-07T18:31:37.495Z,47.53
2018-03-07T18:34:06.889Z,29.90
2018-03-07T18:36:36.069Z,32.07
2018-03-07T18:39:05.547Z,41.37
2018-03-07T18:41:34.751Z,27.90
2018-03-07T18:44:04.293Z,33.10
2018-03-07T18:46:33.393Z,31.03
2018-03-07T18:49:02.609Z,23.07
2018-03-07T18:51:31.638Z,23.13
2018-03-07T18:54:00.725Z,26.10
2018-03-07T18:56:29.771Z,23.17
2018-03-07T18:58:59.205Z,21.17
2018-03-07T19:01:28.369Z,23.43
2018-03-07T19:03:57.763Z,34.73
2018-03-07T19:06:27.989Z,27.50
2018-03-07T19:08:57.105Z,23.13
2018-03-07T19:11:26.392Z,23.83
2018-03-07T19:13:55.546Z,20.60
2018-03-07T19:16:24.682Z,21.23
2018-03-07T19:18:53.777Z,20.13
2018-03-07T19:21:22.811Z,22.87
2018-03-07T19:23:51.922Z,18.67
2018-03-07T19:26:20.916Z,19.63
2018-03-07T19:28:50.062Z,15.23
2018-03-07T19:31:19.100Z,16.70
2018-03-07T19:33:48.253Z,22.20
2018-03-07T19:36:17.370Z,24.17
2018-03-07T19:38:46.625Z,28.40
2018-03-07T19:41:15.686Z,26.67
2018-03-07T19:43:44.946Z,26.47
2018-03-07T19:46:14.077Z,22.20
2018-03-07T19:48:43.183Z,37.60
2018-03-07T19:51:12.534Z,19.43
2018-03-07T19:53:41.868Z,21.73
2018-03-07T19:56:10.985Z,16.57
2018-03-07T19:58:39.988Z,14.90
2018-03-07T20:01:09.298Z,12.13
2018-03-07T20:03:38.325Z,11.83
2018-03-07T20:06:07.845Z,13.10
2018-03-07T20:08:37.125Z,12.83
2018-03-07T20:11:06.386Z,11.83
2018-03-07T20:13:35.845Z,241.00
2018-03-07T20:16:05.129Z,15.77
2018-03-07T20:18:34.127Z,12.77
2018-03-07T20:21:03.141Z,10.10
2018-03-07T20:23:32.386Z,10.43
2018-03-07T20:26:01.477Z,9.93
2018-03-07T20:28:30.497Z,11.73
2018-03-07T20:30:59.573Z,11.47
2018-03-07T20:33:28.717Z,15.33
2018-03-07T20:35:58.495Z,13.40
2018-03-07T20:38:27.723Z,12.40
2018-03-07T20:40:56.699Z,13.40
2018-03-07T20:43:26.123Z,15.80
2018-03-07T20:45:55.258Z,14.20
2018-03-07T20:48:24.245Z,13.30
2018-03-07T20:50:53.239Z,13.50
2018-03-07T20:53:22.330Z,12.37
2018-03-07T20:55:51.701Z,11.93
2018-03-07T20:58:20.961Z,15.80
2018-03-07T21:00:49.913Z,13.60
2018-03-07T21:03:19.541Z,13.27
2018-03-07T21:05:49.277Z,13.93
2018-03-07T21:08:18.337Z,14.00
2018-03-07T21:10:47.891Z,16.03
2018-03-07T21:13:17.221Z,18.07
2018-03-07T21:15:46.625Z,16.23
2018-03-07T21:18:15.881Z,16.03
2018-03-07T21:20:45.403Z,22.23
2018-03-07T21:23:15.520Z,20.90
2018-03-07T21:25:44.753Z,22.37
2018-03-07T21:28:14.317Z,22.43
2018-03-07T21:30:43.587Z,23.90
2018-03-07T21:33:12.677Z,22.37
2018-03-07T21:35:41.939Z,17.97
2018-03-07T21:38:11.245Z,19.40
2018-03-07T21:40:40.447Z,19.17
2018-03-07T21:43:09.933Z,18.47
2018-03-07T21:45:39.444Z,19.67
2018-03-07T21:48:08.598Z,13.30
2018-03-07T21:50:37.680Z,12.57
2018-03-07T21:53:06.936Z,14.47
2018-03-07T21:55:36.206Z,15.27
2018-03-07T21:58:06.191Z,15.97
2018-03-07T22:00:35.546Z,18.90
2018-03-07T22:03:04.800Z,18.33
2018-03-07T22:05:33.895Z,17.20
2018-03-07T22:08:03.230Z,18.20
2018-03-07T22:10:33.013Z,19.07
2018-03-07T22:13:02.298Z,23.97
2018-03-07T22:15:32.113Z,27.23
2018-03-07T22:18:01.399Z,27.77
2018-03-07T22:20:30.485Z,27.33
2018-03-07T22:22:59.537Z,28.70
2018-03-07T22:25:28.993Z,40.07
2018-03-07T22:27:58.081Z,34.80
2018-03-07T22:30:27.365Z,35.87
2018-03-07T22:32:56.715Z,33.27
2018-03-07T22:35:26.840Z,30.27
2018-03-07T22:37:55.932Z,23.37
2018-03-07T22:40:24.972Z,23.43
2018-03-07T22:42:54.163Z,22.33
2018-03-07T22:45:23.621Z,24.47
2018-03-07T22:47:53.231Z,26.47
2018-03-07T22:50:22.222Z,27.77
2018-03-07T22:52:51.792Z,27.63
2018-03-07T22:55:21.245Z,30.37
2018-03-07T22:57:50.568Z,31.97
2018-03-07T23:00:30.963Z,35.47
2018-03-07T23:03:00.505Z,40.43
2018-03-07T23:05:29.898Z,44.93
2018-03-07T23:07:59.060Z,39.30
2018-03-07T23:10:28.345Z,41.60
2018-03-07T23:12:57.622Z,44.40
2018-03-07T23:15:26.741Z,47.30
2018-03-07T23:17:56.189Z,44.43
2018-03-07T23:20:25.170Z,44.00
2018-03-07T23:22:54.791Z,44.37
2018-03-07T23:25:23.935Z,45.73
2018-03-07T23:27:53.009Z,43.27
2018-03-07T23:30:22.350Z,46.67
2018-03-07T23:32:51.586Z,44.33
2018-03-07T23:35:21.050Z,42.43
2018-03-07T23:37:50.303Z,41.30
2018-03-07T23:40:19.649Z,39.50
2018-03-07T23:42:48.953Z,38.37
2018-03-07T23:45:18.379Z,35.67
2018-03-07T23:47:47.652Z,35.07
2018-03-07T23:50:16.867Z,32.87
2018-03-07T23:52:46.356Z,35.67
2018-03-07T23:55:15.728Z,34.37
2018-03-07T23:57:45.165Z,37.13
